Time;durP1;ratioP1;P1;durP2;ratioP2;P2;SDS_P1;SDS_P2;PMS_P1;PMS_P2;Temp;Humidity;BMP_temperature;BMP_pressure;BME280_temperature;BME280_humidity;BME280_pressure;Samples;Min_cycle;Max_cycle;Signal;HPM_P1;HPM_P2
2022/07/21 00:01:01;;;;;;;9.50;8.65;;;20.60;99.90;;;;;;4992722;28;20041;-71
2022/07/21 00:03:26;;;;;;;12.00;10.70;;;20.50;99.90;;;;;;5009387;28;20108;-71
2022/07/21 00:05:52;;;;;;;10.63;9.57;;;20.60;99.90;;;;;;5010803;28;20108;-71
2022/07/21 00:08:17;;;;;;;12.60;11.40;;;20.60;99.90;;;;;;5009960;28;20072;-71
2022/07/21 00:10:43;;;;;;;12.05;10.98;;;20.70;99.90;;;;;;5001960;28;20030;-71
2022/07/21 00:13:09;;;;;;;12.07;11.07;;;20.70;99.90;;;;;;4991178;28;20046;-71
2022/07/21 00:15:34;;;;;;;12.07;11.02;;;21.50;99.90;;;;;;5010129;28;20034;-71
2022/07/21 00:18:00;;;;;;;12.88;11.63;;;20.80;99.90;;;;;;5010738;28;20077;-71
2022/07/21 00:20:30;;;;;;;14.13;12.80;;;20.80;99.90;;;;;;5009959;28;20364;-71
2022/07/21 00:22:56;;;;;;;14.68;13.25;;;20.60;99.90;;;;;;5010273;28;20073;-71
2022/07/21 00:25:23;;;;;;;16.13;14.73;;;20.70;99.90;;;;;;5010080;28;20077;-71
2022/07/21 00:27:48;;;;;;;15.95;14.55;;;20.80;99.90;;;;;;5000498;28;20026;-71
2022/07/21 00:30:14;;;;;;;15.85;14.35;;;20.80;99.90;;;;;;4994310;28;20084;-71
2022/07/21 00:32:41;;;;;;;17.63;15.93;;;20.80;99.90;;;;;;5007862;28;20102;-71
2022/07/21 00:35:07;;;;;;;17.88;16.27;;;20.80;99.90;;;;;;5010346;28;20030;-71
2022/07/21 00:37:33;;;;;;;17.38;15.85;;;20.80;99.90;;;;;;5009805;28;20722;-71
2022/07/21 00:39:59;;;;;;;17.25;15.65;;;20.90;99.90;;;;;;4987648;28;20498;-72
2022/07/21 00:42:28;;;;;;;17.58;15.88;;;21.00;99.90;;;;;;5013504;28;20044;-71
2022/07/21 00:44:54;;;;;;;18.02;16.33;;;20.90;99.90;;;;;;4990114;28;20101;-71
2022/07/21 00:47:21;;;;;;;17.52;16.13;;;20.90;99.90;;;;;;5016488;28;20461;-70
2022/07/21 00:49:47;;;;;;;16.60;15.10;;;20.80;99.90;;;;;;4971611;28;20024;-71
2022/07/21 00:52:13;;;;;;;17.02;15.63;;;20.80;99.90;;;;;;5016460;28;20049;-70
2022/07/21 00:54:39;;;;;;;15.55;14.25;;;21.40;99.90;;;;;;5016332;28;20026;-71
2022/07/21 00:57:05;;;;;;;16.58;15.05;;;20.60;99.90;;;;;;5016479;28;20477;-70
2022/07/21 00:59:30;;;;;;;16.48;15.02;;;20.70;99.90;;;;;;5011355;28;20026;-70
2022/07/21 01:01:56;;;;;;;16.73;15.00;;;20.70;99.90;;;;;;5010387;28;20489;-70
2022/07/21 01:04:22;;;;;;;17.10;15.50;;;20.60;99.90;;;;;;5008981;28;20406;-70
2022/07/21 01:06:47;;;;;;;17.83;16.05;;;20.60;99.90;;;;;;4998343;28;20402;-70
2022/07/21 01:09:13;;;;;;;16.52;15.02;;;20.60;99.90;;;;;;4997601;28;20021;-70
2022/07/21 01:11:40;;;;;;;13.68;12.32;;;20.70;99.90;;;;;;5016026;28;20032;-70
2022/07/21 01:14:06;;;;;;;16.73;15.20;;;20.60;99.90;;;;;;5016474;28;20014;-70
2022/07/21 01:16:32;;;;;;;14.77;13.38;;;20.60;99.90;;;;;;5016174;28;20030;-70
2022/07/21 01:18:58;;;;;;;14.65;13.40;;;20.50;99.90;;;;;;5016441;28;20030;-70
2022/07/21 01:21:27;;;;;;;15.65;14.13;;;20.70;99.90;;;;;;5016046;28;20021;-70
2022/07/21 01:23:53;;;;;;;15.80;14.40;;;20.40;99.90;;;;;;5002859;28;20042;-70
2022/07/21 01:26:18;;;;;;;14.80;13.02;;;20.40;99.90;;;;;;5014935;28;20028;-70
2022/07/21 01:28:44;;;;;;;15.25;13.75;;;20.40;99.90;;;;;;5016496;28;20052;-70
2022/07/21 01:31:10;;;;;;;15.63;14.13;;;20.40;99.90;;;;;;5009602;28;20022;-70
2022/07/21 01:33:35;;;;;;;15.18;13.68;;;20.30;99.90;;;;;;5007632;28;20355;-70
2022/07/21 01:36:01;;;;;;;16.33;14.55;;;20.20;99.90;;;;;;5016151;28;20037;-69
2022/07/21 01:43:55;;;;;;;15.70;14.10;;;20.20;99.90;;;;;;5016370;28;20087;-70
2022/07/21 01:46:21;;;;;;;16.85;15.35;;;20.20;99.90;;;;;;5015633;28;20037;-70
2022/07/21 01:48:46;;;;;;;16.48;14.90;;;20.10;99.90;;;;;;5016376;28;20022;-70
2022/07/21 01:51:12;;;;;;;17.95;14.63;;;;;;;;;;5015650;28;20091;-70
2022/07/21 01:53:39;;;;;;;16.80;15.40;;;20.20;99.90;;;;;;5013044;28;20109;-70
2022/07/21 01:56:05;;;;;;;17.02;15.52;;;20.30;99.90;;;;;;4998769;28;20034;-70
2022/07/21 01:58:31;;;;;;;16.40;15.00;;;20.20;99.90;;;;;;5006428;28;20479;-70
2022/07/21 02:00:57;;;;;;;17.55;15.88;;;20.10;99.90;;;;;;5005471;28;20063;-70
2022/07/21 02:03:23;;;;;;;17.02;15.43;;;19.80;99.90;;;;;;5012331;28;20105;-70
2022/07/21 02:05:48;;;;;;;17.92;16.30;;;20.10;99.90;;;;;;5013020;28;20052;-70
2022/07/21 02:08:14;;;;;;;17.73;16.23;;;20.10;99.90;;;;;;5012589;28;20029;-70
2022/07/21 02:10:40;;;;;;;18.58;16.85;;;20.10;99.90;;;;;;5012155;28;20532;-70
2022/07/21 02:13:05;;;;;;;20.52;18.42;;;20.40;99.90;;;;;;4983487;28;20026;-70
2022/07/21 02:15:31;;;;;;;20.23;18.33;;;20.00;99.90;;;;;;5006386;28;20075;-70
2022/07/21 02:17:58;;;;;;;19.85;18.10;;;19.90;99.90;;;;;;5003064;28;20056;-70
2022/07/21 02:20:24;;;;;;;18.33;16.73;;;19.80;99.90;;;;;;4998072;28;20113;-70
2022/07/21 02:22:50;;;;;;;20.02;18.20;;;19.90;99.90;;;;;;5003876;28;20046;-69
2022/07/21 02:25:16;;;;;;;20.65;18.67;;;19.80;99.90;;;;;;4989528;28;20029;-70
2022/07/21 02:27:43;;;;;;;22.27;20.23;;;19.80;99.90;;;;;;4997070;28;20467;-70
2022/07/21 02:30:09;;;;;;;22.10;20.10;;;19.90;99.90;;;;;;4998546;28;20026;-70
2022/07/21 02:32:35;;;;;;;20.92;19.10;;;19.80;99.90;;;;;;4994779;28;20036;-69
2022/07/21 02:35:01;;;;;;;21.58;19.50;;;19.80;99.90;;;;;;5010795;28;20105;-70
2022/07/21 02:37:28;;;;;;;20.60;18.50;;;19.60;99.90;;;;;;5008920;28;20072;-70
2022/07/21 02:39:54;;;;;;;21.95;19.95;;;19.80;99.90;;;;;;4998806;28;20108;-70
2022/07/21 02:42:20;;;;;;;21.77;19.65;;;19.70;99.90;;;;;;4994117;28;20423;-70
2022/07/21 02:44:45;;;;;;;22.83;20.65;;;19.70;99.90;;;;;;5012054;28;20022;-70
2022/07/21 02:47:11;;;;;;;22.25;19.92;;;19.70;99.90;;;;;;5011848;28;20037;-70
2022/07/21 02:49:36;;;;;;;20.75;18.95;;;19.80;99.90;;;;;;4996542;28;20101;-70
2022/07/21 02:52:02;;;;;;;22.58;20.50;;;19.80;99.90;;;;;;4996397;28;20101;-70
2022/07/21 02:54:28;;;;;;;22.23;20.20;;;19.80;99.90;;;;;;4995297;28;20512;-69
2022/07/21 02:56:53;;;;;;;22.00;20.00;;;19.80;99.90;;;;;;4992855;28;20129;-69
2022/07/21 02:59:19;;;;;;;22.48;20.17;;;20.00;99.90;;;;;;5004650;28;20128;-69
2022/07/21 03:01:45;;;;;;;22.98;20.73;;;19.90;99.90;;;;;;5011629;28;20382;-69
2022/07/21 03:04:11;;;;;;;20.40;18.48;;;19.90;99.90;;;;;;4993731;28;20115;-69
2022/07/21 03:06:37;;;;;;;23.70;21.52;;;20.50;99.90;;;;;;4999903;28;20033;-69
2022/07/21 03:09:03;;;;;;;23.13;20.90;;;;;;;;;;5011640;28;20106;-69
2022/07/21 03:11:29;;;;;;;21.02;19.13;;;20.00;99.90;;;;;;5011054;28;20041;-69
2022/07/21 03:13:54;;;;;;;22.55;20.35;;;19.90;99.90;;;;;;5011782;28;20034;-70
2022/07/21 03:16:20;;;;;;;21.35;19.35;;;20.00;99.90;;;;;;5010965;28;20041;-69
2022/07/21 03:18:45;;;;;;;22.67;20.58;;;20.00;99.90;;;;;;5006603;28;20395;-70
2022/07/21 03:21:11;;;;;;;21.02;19.10;;;20.10;99.90;;;;;;4991804;28;20475;-69
2022/07/21 03:23:36;;;;;;;20.95;19.02;;;20.00;99.90;;;;;;5004740;28;20046;-69
2022/07/21 03:26:02;;;;;;;20.33;18.40;;;20.00;99.90;;;;;;5001054;28;20041;-69
2022/07/21 03:28:28;;;;;;;20.25;18.27;;;20.10;99.90;;;;;;5010843;28;20434;-69
2022/07/21 03:30:53;;;;;;;22.00;19.80;;;21.30;99.90;;;;;;5011189;28;20104;-69
2022/07/21 03:33:19;;;;;;;19.33;17.48;;;19.90;99.90;;;;;;5010847;28;20463;-69
2022/07/21 03:35:44;;;;;;;18.88;17.17;;;19.90;99.90;;;;;;5005374;28;20046;-69
2022/07/21 03:38:10;;;;;;;20.83;18.83;;;19.90;99.90;;;;;;5010586;28;20475;-69
2022/07/21 03:40:37;;;;;;;19.58;17.65;;;19.70;99.90;;;;;;5010976;28;20363;-69
2022/07/21 03:43:04;;;;;;;21.40;19.25;;;19.90;99.90;;;;;;5011071;28;20113;-69
2022/07/21 03:45:32;;;;;;;20.92;18.65;;;19.90;99.90;;;;;;5010471;28;20038;-69
2022/07/21 03:47:59;;;;;;;22.63;20.38;;;19.70;99.90;;;;;;4966126;28;20100;-69
2022/07/21 03:50:25;;;;;;;21.42;19.10;;;19.90;99.90;;;;;;5010560;28;20057;-69
2022/07/21 03:52:51;;;;;;;20.23;18.33;;;19.90;99.90;;;;;;4996655;28;20030;-69
2022/07/21 03:55:19;;;;;;;20.48;18.58;;;20.00;99.90;;;;;;5010529;28;20033;-69
2022/07/21 03:57:47;;;;;;;19.90;17.88;;;20.10;99.90;;;;;;4997005;28;20125;-69
2022/07/21 04:00:21;;;;;;;22.20;20.02;;;19.90;99.90;;;;;;5004195;28;20030;-69
2022/07/21 04:02:47;;;;;;;22.17;19.90;;;19.90;99.90;;;;;;5004649;28;20079;-69
2022/07/21 04:05:15;;;;;;;21.55;19.52;;;20.20;99.90;;;;;;5004539;28;20476;-69
2022/07/21 04:07:42;;;;;;;21.38;19.08;;;19.90;99.90;;;;;;4962091;28;20404;-69
2022/07/21 04:10:09;;;;;;;21.48;19.50;;;19.80;99.90;;;;;;4993114;28;20017;-69
2022/07/21 04:12:36;;;;;;;21.90;19.60;;;17.20;99.90;;;;;;5000294;28;20026;-68
2022/07/21 04:15:02;;;;;;;22.42;20.20;;;19.90;99.90;;;;;;5007184;28;20037;-69
2022/07/21 04:17:27;;;;;;;21.45;19.30;;;19.70;99.90;;;;;;5009669;28;20048;-69
2022/07/21 04:19:53;;;;;;;23.02;20.92;;;20.80;99.90;;;;;;5009938;28;20022;-69
2022/07/21 04:22:18;;;;;;;22.08;19.83;;;19.80;99.90;;;;;;5003810;28;20028;-68
2022/07/21 04:24:44;;;;;;;20.92;18.92;;;19.90;99.90;;;;;;5002874;28;20119;-69
2022/07/21 04:27:09;;;;;;;24.25;21.65;;;19.80;99.90;;;;;;5010049;28;20049;-69
2022/07/21 04:29:35;;;;;;;23.45;21.20;;;19.80;99.90;;;;;;5010244;28;20025;-68
2022/07/21 04:32:01;;;;;;;24.48;21.38;;;20.60;99.90;;;;;;5010429;28;20084;-69
2022/07/21 04:34:28;;;;;;;22.88;20.73;;;19.90;99.90;;;;;;5009507;28;20406;-69
2022/07/21 04:36:53;;;;;;;25.20;21.67;;;19.90;99.90;;;;;;4991650;28;20134;-69
2022/07/21 04:39:19;;;;;;;22.20;20.17;;;19.90;99.90;;;;;;5006311;28;20101;-69
2022/07/21 04:41:44;;;;;;;22.90;20.63;;;20.00;99.90;;;;;;4992630;28;20032;-68
2022/07/21 04:44:10;;;;;;;23.98;21.67;;;19.80;99.90;;;;;;5009858;28;20033;-69
2022/07/21 04:46:35;;;;;;;23.10;20.83;;;19.90;99.90;;;;;;5010119;28;20414;-69
2022/07/21 04:49:01;;;;;;;24.17;21.77;;;19.90;99.90;;;;;;5009982;28;20034;-69
2022/07/21 04:51:27;;;;;;;24.05;21.63;;;19.80;99.90;;;;;;5009634;28;20437;-69
2022/07/21 04:53:52;;;;;;;25.20;22.52;;;19.80;99.90;;;;;;4987373;28;20038;-69
2022/07/21 04:56:18;;;;;;;23.75;21.45;;;19.80;99.90;;;;;;5005253;28;20497;-69
2022/07/21 04:58:43;;;;;;;24.83;21.65;;;20.10;99.90;;;;;;5010245;28;20636;-69
2022/07/21 05:01:09;;;;;;;23.88;21.45;;;19.60;99.90;;;;;;5010303;28;20510;-69
2022/07/21 05:03:34;;;;;;;25.35;22.65;;;19.70;99.90;;;;;;5009596;28;20391;-69
2022/07/21 05:06:00;;;;;;;23.60;21.25;;;19.70;99.90;;;;;;4996819;28;20446;-69
2022/07/21 05:08:27;;;;;;;24.35;21.95;;;19.70;99.90;;;;;;5003745;28;20097;-69
2022/07/21 05:10:52;;;;;;;25.83;22.95;;;19.80;99.90;;;;;;5002279;28;20034;-68
2022/07/21 05:13:18;;;;;;;25.85;23.13;;;19.70;99.90;;;;;;5009206;28;20030;-69
2022/07/21 05:15:43;;;;;;;26.10;23.40;;;19.80;99.90;;;;;;5004334;28;20041;-68
2022/07/21 05:18:09;;;;;;;25.77;23.17;;;19.70;99.90;;;;;;4991671;28;20077;-69
2022/07/21 05:20:35;;;;;;;28.08;23.38;;;19.80;99.90;;;;;;4996985;28;20058;-69
2022/07/21 05:23:01;;;;;;;26.40;23.65;;;21.40;99.90;;;;;;4994600;28;20506;-69
2022/07/21 05:25:28;;;;;;;27.40;24.73;;;19.90;99.90;;;;;;4989634;28;20029;-69
2022/07/21 05:27:53;;;;;;;27.00;24.15;;;19.80;99.90;;;;;;4991503;28;20053;-69
2022/07/21 05:30:19;;;;;;;28.00;25.05;;;19.90;99.90;;;;;;4993444;28;20018;-69
2022/07/21 05:32:45;;;;;;;26.75;24.08;;;19.80;99.90;;;;;;5011483;28;20398;-69
2022/07/21 05:35:11;;;;;;;28.45;25.45;;;19.80;99.90;;;;;;5002806;28;20030;-68
2022/07/21 05:37:40;;;;;;;28.85;26.02;;;19.90;99.90;;;;;;5009614;28;20034;-69
2022/07/21 05:40:09;;;;;;;29.35;26.35;;;19.80;99.90;;;;;;5013254;28;20049;-70
2022/07/21 05:42:36;;;;;;;29.25;26.25;;;19.90;99.90;;;;;;5003474;28;20036;-70
2022/07/21 05:45:03;;;;;;;29.48;26.33;;;19.80;99.90;;;;;;5013537;28;20431;-70
2022/07/21 05:47:29;;;;;;;31.02;27.88;;;19.90;99.90;;;;;;5012115;28;20479;-70
2022/07/21 05:49:55;;;;;;;32.35;28.80;;;21.10;99.90;;;;;;5013307;28;20048;-70
2022/07/21 05:52:20;;;;;;;30.23;27.15;;;19.90;99.90;;;;;;4995264;28;20535;-70
2022/07/21 05:54:46;;;;;;;27.17;24.48;;;19.90;99.90;;;;;;5005424;28;20030;-70
2022/07/21 05:57:12;;;;;;;30.52;27.10;;;19.90;99.90;;;;;;4996834;28;20043;-70
2022/07/21 05:59:37;;;;;;;31.13;27.90;;;21.20;99.90;;;;;;4998656;28;20071;-70
2022/07/21 06:02:03;;;;;;;29.80;26.75;;;20.00;99.90;;;;;;5012586;28;20030;-70
2022/07/21 06:04:28;;;;;;;29.08;26.00;;;20.10;99.90;;;;;;4998605;28;20029;-70
2022/07/21 06:06:54;;;;;;;28.20;25.40;;;20.20;99.90;;;;;;5003720;28;20041;-70
2022/07/21 06:09:20;;;;;;;29.73;26.63;;;20.10;99.90;;;;;;4999888;28;20027;-70
2022/07/21 06:11:45;;;;;;;25.95;22.65;;;20.30;99.90;;;;;;5012804;28;20402;-70
2022/07/21 06:14:11;;;;;;;27.70;24.67;;;20.30;99.90;;;;;;4981910;28;20022;-70
2022/07/21 06:16:37;;;;;;;27.58;23.20;;;20.20;99.90;;;;;;5011490;28;20383;-70
2022/07/21 06:19:04;;;;;;;28.60;25.42;;;20.40;99.90;;;;;;5012826;28;20045;-70
2022/07/21 06:21:30;;;;;;;24.70;22.17;;;20.30;99.90;;;;;;5008302;28;20450;-70
2022/07/21 06:23:55;;;;;;;25.58;23.17;;;21.00;99.90;;;;;;4991718;28;20042;-70
2022/07/21 06:26:21;;;;;;;26.45;23.40;;;21.30;99.90;;;;;;4993403;28;20058;-70
2022/07/21 06:28:46;;;;;;;25.38;22.88;;;20.40;99.90;;;;;;4993079;28;20098;-71
2022/07/21 06:31:12;;;;;;;25.90;23.08;;;20.30;99.90;;;;;;4992096;28;20026;-70
2022/07/21 06:33:37;;;;;;;24.42;21.90;;;20.40;99.90;;;;;;5003923;28;20029;-70
2022/07/21 06:36:03;;;;;;;27.92;22.80;;;20.40;99.90;;;;;;4998565;28;20060;-70
2022/07/21 06:38:29;;;;;;;26.20;22.55;;;20.40;99.90;;;;;;5011536;28;20803;-70
2022/07/21 06:40:54;;;;;;;27.35;24.45;;;22.30;99.90;;;;;;5009823;28;20034;-70
2022/07/21 06:43:20;;;;;;;24.73;22.30;;;20.60;99.90;;;;;;4992383;28;20101;-70
2022/07/21 06:45:45;;;;;;;26.20;23.38;;;20.50;99.90;;;;;;4992135;28;20041;-70
2022/07/21 06:48:12;;;;;;;26.45;23.58;;;20.70;99.90;;;;;;4991635;28;20065;-70
2022/07/21 06:50:37;;;;;;;29.77;26.73;;;20.70;99.90;;;;;;4992201;28;20129;-70
2022/07/21 06:53:04;;;;;;;28.95;25.95;;;20.70;99.90;;;;;;4990353;28;20101;-70
2022/07/21 06:55:29;;;;;;;29.67;26.40;;;20.80;99.90;;;;;;4982444;28;20548;-70
2022/07/21 06:57:55;;;;;;;28.50;25.50;;;21.40;99.90;;;;;;5000750;28;20101;-70
2022/07/21 07:00:21;;;;;;;26.73;23.92;;;20.90;99.90;;;;;;5001604;28;20101;-70
2022/07/21 07:02:47;;;;;;;26.40;23.42;;;20.90;99.90;;;;;;5000268;28;20459;-70
2022/07/21 07:05:12;;;;;;;28.92;26.00;;;21.00;99.90;;;;;;4996221;28;20029;-71
2022/07/21 07:07:38;;;;;;;26.65;23.90;;;21.10;99.90;;;;;;4997680;28;20039;-70
2022/07/21 07:10:05;;;;;;;28.50;25.65;;;21.20;99.90;;;;;;4986097;28;20084;-70
2022/07/21 07:12:31;;;;;;;36.13;29.98;;;21.10;99.90;;;;;;4987109;28;20113;-69
2022/07/21 07:14:56;;;;;;;29.30;25.85;;;21.10;99.90;;;;;;4987951;28;20432;-69
2022/07/21 07:17:22;;;;;;;25.92;23.13;;;21.00;99.90;;;;;;4989905;28;20061;-69
2022/07/21 07:19:48;;;;;;;26.67;23.73;;;21.00;99.90;;;;;;4993322;28;20034;-69
2022/07/21 07:22:14;;;;;;;22.90;20.60;;;21.10;99.90;;;;;;4988518;28;20101;-69
2022/07/21 07:24:39;;;;;;;28.45;24.77;;;21.00;99.90;;;;;;4990421;28;20057;-69
2022/07/21 07:27:05;;;;;;;26.33;23.35;;;21.10;99.90;;;;;;4991596;28;20022;-69
2022/07/21 07:29:31;;;;;;;29.05;24.27;;;21.00;99.90;;;;;;4989920;28;20629;-69
2022/07/21 07:31:57;;;;;;;24.17;21.17;;;21.20;99.90;;;;;;4979870;28;20059;-69
2022/07/21 07:34:23;;;;;;;27.30;22.38;;;21.10;99.90;;;;;;5002596;28;20034;-69
2022/07/21 07:36:48;;;;;;;25.10;21.98;;;20.80;99.90;;;;;;4991445;28;20034;-70
2022/07/21 07:39:15;;;;;;;30.55;23.90;;;21.30;99.90;;;;;;4991882;28;20022;-69
2022/07/21 07:41:41;;;;;;;29.35;26.25;;;21.40;99.90;;;;;;4997682;28;20027;-69
2022/07/21 07:44:07;;;;;;;29.42;24.00;;;21.70;99.90;;;;;;4990794;28;20035;-69
2022/07/21 07:46:33;;;;;;;25.17;22.23;;;21.40;99.90;;;;;;4992183;28;20034;-69
2022/07/21 07:48:59;;;;;;;26.85;23.98;;;21.00;99.90;;;;;;4991067;28;20073;-68
2022/07/21 07:51:25;;;;;;;28.88;23.20;;;21.30;99.90;;;;;;4972376;28;20030;-69
2022/07/21 07:53:50;;;;;;;26.42;22.65;;;21.20;99.90;;;;;;4991338;28;20423;-69
2022/07/21 07:56:16;;;;;;;30.75;24.67;;;21.40;99.90;;;;;;4987598;28;20038;-69
2022/07/21 07:58:41;;;;;;;29.20;25.42;;;21.30;99.90;;;;;;4992696;28;20039;-69
2022/07/21 08:01:07;;;;;;;30.60;26.55;;;21.50;99.90;;;;;;4985459;28;20110;-69
2022/07/21 08:03:33;;;;;;;27.30;24.33;;;21.60;99.90;;;;;;4989095;28;20133;-68
2022/07/21 08:06:03;;;;;;;25.95;22.77;;;21.60;99.90;;;;;;4988703;28;20030;-69
2022/07/21 08:08:32;;;;;;;28.92;25.10;;;21.70;99.90;;;;;;4989948;28;20027;-70
2022/07/21 08:10:58;;;;;;;27.98;25.02;;;21.70;99.90;;;;;;4990352;28;20069;-69
2022/07/21 08:13:24;;;;;;;26.92;24.17;;;21.80;99.90;;;;;;4999893;28;20022;-69
2022/07/21 08:15:50;;;;;;;28.83;24.10;;;21.80;99.90;;;;;;4990936;28;20380;-69
2022/07/21 08:18:17;;;;;;;28.58;23.45;;;21.90;99.90;;;;;;4988520;28;20105;-69
2022/07/21 08:20:44;;;;;;;26.05;22.70;;;21.90;99.90;;;;;;4991878;28;20034;-69
2022/07/21 08:23:11;;;;;;;26.48;23.75;;;22.00;99.90;;;;;;4997014;28;20088;-70
2022/07/21 08:25:36;;;;;;;25.42;22.63;;;22.90;99.90;;;;;;4991070;28;20296;-69
2022/07/21 08:28:02;;;;;;;25.20;22.70;;;22.00;99.90;;;;;;4997701;28;20084;-69
2022/07/21 08:30:27;;;;;;;25.77;22.88;;;22.10;99.90;;;;;;4995981;28;20038;-69
2022/07/21 08:32:53;;;;;;;26.50;23.45;;;22.10;99.90;;;;;;4983335;28;20121;-69
2022/07/21 08:35:19;;;;;;;25.73;22.13;;;22.10;99.90;;;;;;4988484;28;20049;-69
2022/07/21 08:37:53;;;;;;;26.40;23.35;;;22.30;99.90;;;;;;4994201;28;20034;-69
2022/07/21 08:40:23;;;;;;;27.23;22.88;;;23.30;99.90;;;;;;5008684;28;20036;-69
2022/07/21 08:42:49;;;;;;;23.38;20.98;;;21.90;99.90;;;;;;4992293;28;20117;-69
2022/07/21 08:45:15;;;;;;;26.23;23.40;;;22.10;99.90;;;;;;4989698;28;20026;-68
2022/07/21 08:47:41;;;;;;;25.25;22.65;;;21.80;99.90;;;;;;4990512;28;20089;-68
2022/07/21 08:50:08;;;;;;;25.85;22.67;;;23.00;99.90;;;;;;4990169;28;20031;-69
2022/07/21 08:52:34;;;;;;;24.08;21.42;;;21.70;99.90;;;;;;4993994;28;20472;-70
2022/07/21 08:55:00;;;;;;;27.33;22.83;;;21.20;99.90;;;;;;4989538;28;20029;-70
2022/07/21 08:57:26;;;;;;;26.15;22.75;;;21.50;99.90;;;;;;4994706;28;20042;-69
2022/07/21 08:59:52;;;;;;;24.45;21.92;;;21.30;99.90;;;;;;4990675;28;20046;-69
2022/07/21 09:02:33;;;;;;;28.00;24.38;;;21.30;99.90;;;;;;4989886;28;20018;-71
2022/07/21 09:04:59;;;;;;;28.30;25.20;;;21.30;99.90;;;;;;4993608;28;20014;-70
2022/07/21 09:07:25;;;;;;;29.90;23.08;;;21.10;99.90;;;;;;4996417;28;20022;-69
2022/07/21 09:09:59;;;;;;;25.15;21.60;;;21.10;99.90;;;;;;5003893;28;20027;-69
2022/07/21 09:12:25;;;;;;;;;;;21.00;99.90;;;;;;4993229;28;20027;-69
2022/07/21 09:14:51;;;;;;;23.80;20.35;;;20.90;99.90;;;;;;4994154;28;19928;-70
2022/07/21 09:17:19;;;;;;;25.80;21.48;;;21.00;99.90;;;;;;4999820;28;20472;-70
2022/07/21 09:19:46;;;;;;;27.02;21.05;;;20.80;99.90;;;;;;4997341;28;20108;-70
2022/07/21 09:22:18;;;;;;;24.85;20.38;;;20.90;99.90;;;;;;5003240;28;20471;-69
2022/07/21 09:24:51;;;;;;;23.77;17.77;;;20.90;99.90;;;;;;5003476;28;20034;-69
2022/07/21 09:27:20;;;;;;;;;;;20.70;99.90;;;;;;4997031;28;20022;-70
2022/07/21 09:30:08;;;;;;;16.73;14.80;;;20.60;99.90;;;;;;4976703;28;19910;-69
2022/07/21 09:32:36;;;;;;;13.10;11.52;;;20.80;99.90;;;;;;4996910;28;20023;-70
2022/07/21 09:35:12;;;;;;;11.07;9.98;;;20.50;99.90;;;;;;5003043;28;20026;-70
2022/07/21 09:37:38;;;;;;;11.65;10.02;;;20.50;99.90;;;;;;5009673;28;20118;-69
2022/07/21 09:40:07;;;;;;;10.73;9.73;;;20.40;99.90;;;;;;4999425;28;20026;-70
2022/07/21 09:42:38;;;;;;;11.10;9.90;;;20.30;99.90;;;;;;5008756;28;20029;-69
2022/07/21 09:45:13;;;;;;;11.05;9.93;;;20.10;99.90;;;;;;5003910;28;20033;-70
2022/07/21 09:47:40;;;;;;;12.20;10.90;;;20.20;99.90;;;;;;4993454;28;20046;-71
2022/07/21 09:50:08;;;;;;;10.50;9.52;;;20.00;99.90;;;;;;4992339;28;20097;-70
2022/07/21 09:52:38;;;;;;;9.05;7.97;;;20.00;99.90;;;;;;4993293;28;20102;-71
2022/07/21 09:55:07;;;;;;;11.05;9.18;;;20.10;99.90;;;;;;4993383;28;20022;-70
2022/07/21 09:57:34;;;;;;;11.30;9.93;;;20.00;99.90;;;;;;4992720;28;20042;-70
2022/07/21 10:00:03;;;;;;;9.60;8.68;;;20.10;99.90;;;;;;5005030;28;20101;-71
2022/07/21 10:02:31;;;;;;;10.20;9.05;;;20.10;99.90;;;;;;4999133;28;20026;-71
2022/07/21 10:05:07;;;;;;;10.27;9.25;;;20.00;99.90;;;;;;4996715;28;20029;-70
2022/07/21 10:07:35;;;;;;;10.45;8.50;;;20.10;99.90;;;;;;4999313;28;20030;-71
2022/07/21 10:10:01;;;;;;;8.95;8.13;;;20.00;99.90;;;;;;4995228;28;20026;-71
2022/07/21 10:12:27;;;;;;;10.20;9.20;;;20.00;99.90;;;;;;5000818;28;20177;-71
2022/07/21 10:14:54;;;;;;;8.50;7.68;;;20.00;99.90;;;;;;4992282;28;20031;-71
2022/07/21 10:17:20;;;;;;;10.25;8.70;;;20.00;99.90;;;;;;5000033;28;20030;-71
2022/07/21 10:20:12;;;;;;;9.23;8.43;;;20.00;99.90;;;;;;4997519;28;20123;-71
2022/07/21 10:23:11;;;;;;;9.60;8.70;;;20.20;99.90;;;;;;4983292;28;20050;-71
2022/07/21 10:25:38;;;;;;;9.30;8.38;;;20.20;99.90;;;;;;5009746;28;20048;-71
2022/07/21 10:28:10;;;;;;;8.80;8.00;;;20.20;99.90;;;;;;5010626;28;20022;-71
2022/07/21 10:30:40;;;;;;;10.00;9.00;;;20.20;99.90;;;;;;4992131;28;20027;-71
2022/07/21 10:33:06;;;;;;;8.88;7.97;;;20.30;99.90;;;;;;4998281;28;20018;-71
2022/07/21 10:35:32;;;;;;;9.43;8.52;;;20.10;99.90;;;;;;4975103;28;20032;-71
2022/07/21 10:37:59;;;;;;;10.18;9.20;;;20.30;99.90;;;;;;5004107;28;20026;-76
2022/07/21 10:40:25;;;;;;;10.00;8.45;;;20.10;99.90;;;;;;4998926;28;20027;-70
2022/07/21 10:43:00;;;;;;;14.88;8.35;;;21.30;99.90;;;;;;4998142;28;20033;-70
2022/07/21 10:45:40;;;;;;;11.15;9.93;;;20.20;99.90;;;;;;4991230;28;20046;-70
2022/07/21 10:48:08;;;;;;;11.23;10.23;;;20.30;99.90;;;;;;4999237;28;20445;-70
2022/07/21 10:50:37;;;;;;;10.70;9.80;;;20.10;99.90;;;;;;4997814;28;20101;-70
2022/07/21 10:53:05;;;;;;;12.10;10.98;;;20.20;99.90;;;;;;5001731;28;20554;-70
2022/07/21 10:55:34;;;;;;;10.38;9.48;;;20.10;99.90;;;;;;5000299;28;20018;-71
2022/07/21 10:58:26;;;;;;;7.32;6.72;;;20.10;99.90;;;;;;4985924;28;20029;-71
2022/07/21 11:00:54;;;;;;;7.45;6.78;;;20.20;99.90;;;;;;4985296;28;20483;-72
2022/07/21 11:03:29;;;;;;;7.72;6.93;;;20.10;99.90;;;;;;4998661;28;20034;-71
2022/07/21 11:06:09;;;;;;;6.35;5.85;;;20.10;99.90;;;;;;4990723;28;20101;-70
2022/07/21 11:09:03;;;;;;;6.22;5.68;;;20.20;99.90;;;;;;4996921;28;20026;-71
2022/07/21 11:11:59;;;;;;;5.82;5.22;;;20.30;99.90;;;;;;4969081;28;20080;-71
2022/07/21 11:14:36;;;;;;;6.25;5.75;;;20.30;99.90;;;;;;4971211;28;20043;-71
2022/07/21 11:17:02;;;;;;;6.60;6.10;;;20.10;99.90;;;;;;4996730;28;20117;-70
2022/07/21 11:19:37;;;;;;;7.30;6.60;;;20.00;99.90;;;;;;4991218;28;20018;-71
2022/07/21 11:22:26;;;;;;;6.93;6.25;;;20.10;99.90;;;;;;4990131;28;20022;-71
2022/07/21 11:24:58;;;;;;;9.32;8.45;;;20.00;99.90;;;;;;4991853;28;20042;-71
2022/07/21 11:27:26;;;;;;;9.77;8.88;;;20.00;99.90;;;;;;4983189;28;20072;-71
2022/07/21 11:29:55;;;;;;;8.52;7.68;;;20.10;99.90;;;;;;5008990;28;20095;-71
2022/07/21 11:32:21;;;;;;;8.60;7.90;;;20.00;99.90;;;;;;5004934;28;20034;-71
2022/07/21 11:34:59;;;;;;;10.20;9.00;;;20.20;99.90;;;;;;5011310;28;20136;-70
2022/07/21 11:37:36;;;;;;;10.18;9.18;;;20.20;99.90;;;;;;5009439;28;20045;-70
2022/07/21 11:40:11;;;;;;;10.50;9.43;;;21.20;99.90;;;;;;5002840;28;20026;-71
2022/07/21 11:42:38;;;;;;;9.88;8.98;;;20.20;99.90;;;;;;5006134;28;20394;-71
2022/07/21 11:45:04;;;;;;;10.95;9.93;;;20.30;99.90;;;;;;5000163;28;20049;-70
2022/07/21 11:47:30;;;;;;;10.48;9.57;;;20.20;99.90;;;;;;4995628;28;20022;-70
2022/07/21 11:49:59;;;;;;;11.85;10.75;;;20.20;99.90;;;;;;4995526;28;20022;-70
2022/07/21 11:52:30;;;;;;;13.43;12.32;;;20.20;99.90;;;;;;5001461;28;20029;-70
2022/07/21 11:54:57;;;;;;;14.48;12.98;;;20.10;99.90;;;;;;5005347;28;20026;-70
2022/07/21 11:57:24;;;;;;;14.25;13.05;;;20.10;99.90;;;;;;4992544;28;20038;-70
2022/07/21 11:59:52;;;;;;;15.75;14.18;;;20.00;99.90;;;;;;4989495;28;20053;-72
2022/07/21 12:02:26;;;;;;;15.95;14.38;;;20.10;99.90;;;;;;4987849;28;20364;-70
2022/07/21 12:04:53;;;;;;;16.90;15.35;;;20.10;99.90;;;;;;4992966;28;20057;-70
2022/07/21 12:07:30;;;;;;;13.10;11.95;;;20.10;99.90;;;;;;4989219;28;20080;-70
2022/07/21 12:09:58;;;;;;;12.10;10.95;;;20.20;99.90;;;;;;4982578;28;20085;-71
2022/07/21 12:12:42;;;;;;;12.90;11.75;;;20.90;99.90;;;;;;4993313;28;20065;-71
2022/07/21 12:15:19;;;;;;;14.48;13.25;;;20.20;99.90;;;;;;4995645;28;20106;-70
2022/07/21 12:17:53;;;;;;;14.70;13.30;;;20.50;99.90;;;;;;4982028;28;20043;-70
2022/07/21 12:20:39;;;;;;;14.30;13.00;;;20.40;99.90;;;;;;4987131;28;20026;-70
2022/07/21 12:23:17;;;;;;;14.27;12.93;;;20.70;99.90;;;;;;4993986;28;20113;-70
2022/07/21 12:25:42;;;;;;;13.32;12.15;;;21.60;99.90;;;;;;4983323;28;20446;-71
2022/07/21 12:28:08;;;;;;;13.80;12.52;;;20.50;99.90;;;;;;4986428;28;20113;-70
2022/07/21 12:30:43;;;;;;;12.18;10.98;;;20.60;99.90;;;;;;4983053;28;20051;-70
2022/07/21 12:33:16;;;;;;;11.02;10.02;;;20.50;99.90;;;;;;4990919;28;20502;-69
2022/07/21 12:36:01;;;;;;;11.88;10.77;;;20.60;99.90;;;;;;4973597;28;20022;-70
2022/07/21 12:38:47;;;;;;;11.38;10.07;;;20.50;99.90;;;;;;4994189;28;20054;-70